sensor_id;sensor_type;location;lat;lon;timestamp;temperature;humidity
9393;DHT22;4736;52.508;13.422;2023-12-22T00:02:59;4.70;66.60
9393;DHT22;4736;52.508;13.422;2023-12-22T00:06:03;4.50;66.50
9393;DHT22;4736;52.508;13.422;2023-12-22T00:09:06;4.50;66.40
9393;DHT22;4736;52.508;13.422;2023-12-22T00:12:11;4.50;66.00
9393;DHT22;4736;52.508;13.422;2023-12-22T00:15:19;4.50;65.80
9393;DHT22;4736;52.508;13.422;2023-12-22T00:18:24;4.50;65.80
9393;DHT22;4736;52.508;13.422;2023-12-22T00:21:27;4.40;65.60
9393;DHT22;4736;52.508;13.422;2023-12-22T00:24:31;4.40;66.00
9393;DHT22;4736;52.508;13.422;2023-12-22T00:27:36;4.40;65.40
9393;DHT22;4736;52.508;13.422;2023-12-22T00:30:39;4.40;64.80
9393;DHT22;4736;52.508;13.422;2023-12-22T00:33:42;4.40;64.60
9393;DHT22;4736;52.508;13.422;2023-12-22T00:36:45;4.40;64.40
9393;DHT22;4736;52.508;13.422;2023-12-22T00:39:51;4.40;64.30
9393;DHT22;4736;52.508;13.422;2023-12-22T00:42:58;4.50;63.90
9393;DHT22;4736;52.508;13.422;2023-12-22T00:46:01;4.50;64.00
9393;DHT22;4736;52.508;13.422;2023-12-22T00:49:04;4.50;64.20
9393;DHT22;4736;52.508;13.422;2023-12-22T00:52:08;4.50;64.50
9393;DHT22;4736;52.508;13.422;2023-12-22T00:55:11;4.50;64.40
9393;DHT22;4736;52.508;13.422;2023-12-22T00:58:16;4.50;64.70
9393;DHT22;4736;52.508;13.422;2023-12-22T01:01:19;4.50;65.00
9393;DHT22;4736;52.508;13.422;2023-12-22T01:04:23;4.40;65.30
9393;DHT22;4736;52.508;13.422;2023-12-22T01:07:26;4.40;65.90
9393;DHT22;4736;52.508;13.422;2023-12-22T01:10:29;4.40;65.90
9393;DHT22;4736;52.508;13.422;2023-12-22T01:13:34;4.40;66.30
9393;DHT22;4736;52.508;13.422;2023-12-22T01:16:37;4.40;66.70
9393;DHT22;4736;52.508;13.422;2023-12-22T01:19:40;4.40;67.30
9393;DHT22;4736;52.508;13.422;2023-12-22T01:22:43;4.30;67.80
9393;DHT22;4736;52.508;13.422;2023-12-22T01:25:47;4.20;68.20
9393;DHT22;4736;52.508;13.422;2023-12-22T01:28:51;4.20;68.90
9393;DHT22;4736;52.508;13.422;2023-12-22T01:31:54;4.20;69.10
9393;DHT22;4736;52.508;13.422;2023-12-22T01:34:58;4.20;69.40
9393;DHT22;4736;52.508;13.422;2023-12-22T01:38:02;4.20;69.20
9393;DHT22;4736;52.508;13.422;2023-12-22T01:41:06;4.20;69.60
9393;DHT22;4736;52.508;13.422;2023-12-22T01:44:11;4.20;69.40
9393;DHT22;4736;52.508;13.422;2023-12-22T01:47:14;4.20;69.80
9393;DHT22;4736;52.508;13.422;2023-12-22T01:50:18;4.20;69.80
9393;DHT22;4736;52.508;13.422;2023-12-22T01:53:21;4.10;69.80
9393;DHT22;4736;52.508;13.422;2023-12-22T01:56:25;4.20;69.90
9393;DHT22;4736;52.508;13.422;2023-12-22T01:59:31;4.10;69.90
9393;DHT22;4736;52.508;13.422;2023-12-22T02:02:36;4.10;70.20
9393;DHT22;4736;52.508;13.422;2023-12-22T02:05:41;4.10;70.10
9393;DHT22;4736;52.508;13.422;2023-12-22T02:08:46;4.10;70.10
9393;DHT22;4736;52.508;13.422;2023-12-22T02:11:49;4.10;70.10
9393;DHT22;4736;52.508;13.422;2023-12-22T02:14:54;4.00;70.30
9393;DHT22;4736;52.508;13.422;2023-12-22T02:18:02;4.00;70.20
9393;DHT22;4736;52.508;13.422;2023-12-22T02:21:07;4.00;70.30
9393;DHT22;4736;52.508;13.422;2023-12-22T02:24:12;4.00;70.50
9393;DHT22;4736;52.508;13.422;2023-12-22T02:27:27;4.00;70.60
9393;DHT22;4736;52.508;13.422;2023-12-22T02:30:33;3.90;70.90
9393;DHT22;4736;52.508;13.422;2023-12-22T02:33:39;3.90;71.00
9393;DHT22;4736;52.508;13.422;2023-12-22T02:36:45;3.90;71.20
9393;DHT22;4736;52.508;13.422;2023-12-22T02:39:51;3.90;71.10
9393;DHT22;4736;52.508;13.422;2023-12-22T02:42:55;3.90;71.20
9393;DHT22;4736;52.508;13.422;2023-12-22T02:45:58;3.80;71.50
9393;DHT22;4736;52.508;13.422;2023-12-22T02:49:01;3.90;71.50
9393;DHT22;4736;52.508;13.422;2023-12-22T02:52:05;3.90;71.50
9393;DHT22;4736;52.508;13.422;2023-12-22T02:55:11;3.90;71.20
9393;DHT22;4736;52.508;13.422;2023-12-22T02:58:16;3.90;70.80
9393;DHT22;4736;52.508;13.422;2023-12-22T03:01:20;3.90;70.90
9393;DHT22;4736;52.508;13.422;2023-12-22T03:04:23;3.80;71.00
9393;DHT22;4736;52.508;13.422;2023-12-22T03:07:26;3.80;71.00
9393;DHT22;4736;52.508;13.422;2023-12-22T03:10:31;3.70;71.20
9393;DHT22;4736;52.508;13.422;2023-12-22T03:13:34;3.70;71.50
9393;DHT22;4736;52.508;13.422;2023-12-22T03:16:37;3.60;71.70
9393;DHT22;4736;52.508;13.422;2023-12-22T03:19:43;3.60;71.70
9393;DHT22;4736;52.508;13.422;2023-12-22T03:22:46;3.70;71.30
9393;DHT22;4736;52.508;13.422;2023-12-22T03:25:51;3.70;71.40
9393;DHT22;4736;52.508;13.422;2023-12-22T03:28:54;3.70;71.40
9393;DHT22;4736;52.508;13.422;2023-12-22T03:31:57;3.60;71.60
9393;DHT22;4736;52.508;13.422;2023-12-22T03:35:00;3.60;72.00
9393;DHT22;4736;52.508;13.422;2023-12-22T03:38:04;3.60;71.80
9393;DHT22;4736;52.508;13.422;2023-12-22T03:41:08;3.60;72.00
9393;DHT22;4736;52.508;13.422;2023-12-22T03:44:25;3.60;72.00
9393;DHT22;4736;52.508;13.422;2023-12-22T03:47:31;3.60;72.00
9393;DHT22;4736;52.508;13.422;2023-12-22T03:50:34;3.60;72.20
9393;DHT22;4736;52.508;13.422;2023-12-22T03:53:38;3.60;72.10
9393;DHT22;4736;52.508;13.422;2023-12-22T03:56:43;3.60;72.30
9393;DHT22;4736;52.508;13.422;2023-12-22T03:59:46;3.60;72.10
9393;DHT22;4736;52.508;13.422;2023-12-22T04:02:49;3.70;71.80
9393;DHT22;4736;52.508;13.422;2023-12-22T04:05:52;3.70;71.60
9393;DHT22;4736;52.508;13.422;2023-12-22T04:08:56;3.70;71.70
9393;DHT22;4736;52.508;13.422;2023-12-22T04:12:00;3.60;72.10
9393;DHT22;4736;52.508;13.422;2023-12-22T04:15:05;3.60;72.30
9393;DHT22;4736;52.508;13.422;2023-12-22T04:18:09;3.60;72.60
9393;DHT22;4736;52.508;13.422;2023-12-22T04:21:13;3.70;72.70
9393;DHT22;4736;52.508;13.422;2023-12-22T04:24:16;3.60;73.10
9393;DHT22;4736;52.508;13.422;2023-12-22T04:27:20;3.60;73.50
9393;DHT22;4736;52.508;13.422;2023-12-22T04:30:24;3.50;74.10
9393;DHT22;4736;52.508;13.422;2023-12-22T04:33:31;3.40;74.60
9393;DHT22;4736;52.508;13.422;2023-12-22T04:36:37;3.30;75.10
9393;DHT22;4736;52.508;13.422;2023-12-22T04:39:40;3.30;75.20
9393;DHT22;4736;52.508;13.422;2023-12-22T04:42:45;3.20;75.30
9393;DHT22;4736;52.508;13.422;2023-12-22T04:45:48;3.20;75.50
9393;DHT22;4736;52.508;13.422;2023-12-22T04:48:51;3.10;75.70
9393;DHT22;4736;52.508;13.422;2023-12-22T04:51:54;3.20;75.90
9393;DHT22;4736;52.508;13.422;2023-12-22T04:55:03;3.20;75.80
9393;DHT22;4736;52.508;13.422;2023-12-22T04:58:07;3.30;75.60
9393;DHT22;4736;52.508;13.422;2023-12-22T05:01:11;3.20;75.50
9393;DHT22;4736;52.508;13.422;2023-12-22T05:04:14;3.20;75.90
9393;DHT22;4736;52.508;13.422;2023-12-22T05:07:19;3.30;76.10
9393;DHT22;4736;52.508;13.422;2023-12-22T05:10:22;3.10;76.70
9393;DHT22;4736;52.508;13.422;2023-12-22T05:13:27;3.00;77.30
9393;DHT22;4736;52.508;13.422;2023-12-22T05:16:30;2.90;77.60
9393;DHT22;4736;52.508;13.422;2023-12-22T05:19:33;2.70;78.60
9393;DHT22;4736;52.508;13.422;2023-12-22T05:22:36;2.70;78.70
9393;DHT22;4736;52.508;13.422;2023-12-22T05:25:40;2.70;78.50
9393;DHT22;4736;52.508;13.422;2023-12-22T05:28:45;2.60;78.00
9393;DHT22;4736;52.508;13.422;2023-12-22T05:31:48;2.60;78.30
9393;DHT22;4736;52.508;13.422;2023-12-22T05:34:52;2.50;78.50
9393;DHT22;4736;52.508;13.422;2023-12-22T05:37:55;2.50;78.30
9393;DHT22;4736;52.508;13.422;2023-12-22T05:40:58;2.50;78.70
9393;DHT22;4736;52.508;13.422;2023-12-22T05:44:06;2.60;78.70
9393;DHT22;4736;52.508;13.422;2023-12-22T05:47:09;2.60;78.70
9393;DHT22;4736;52.508;13.422;2023-12-22T05:50:12;2.60;78.70
9393;DHT22;4736;52.508;13.422;2023-12-22T05:53:16;2.50;78.50
9393;DHT22;4736;52.508;13.422;2023-12-22T05:56:20;2.50;78.40
9393;DHT22;4736;52.508;13.422;2023-12-22T05:59:24;2.60;78.30
9393;DHT22;4736;52.508;13.422;2023-12-22T06:02:29;2.60;78.20
9393;DHT22;4736;52.508;13.422;2023-12-22T06:05:33;2.50;77.80
9393;DHT22;4736;52.508;13.422;2023-12-22T06:08:37;2.50;77.90
9393;DHT22;4736;52.508;13.422;2023-12-22T06:11:40;2.50;76.60
9393;DHT22;4736;52.508;13.422;2023-12-22T06:14:45;2.60;75.60
9393;DHT22;4736;52.508;13.422;2023-12-22T06:17:48;2.80;74.50
9393;DHT22;4736;52.508;13.422;2023-12-22T06:20:51;2.80;74.10
9393;DHT22;4736;52.508;13.422;2023-12-22T06:23:54;2.70;74.20
9393;DHT22;4736;52.508;13.422;2023-12-22T06:26:57;2.70;73.90
9393;DHT22;4736;52.508;13.422;2023-12-22T06:30:03;2.70;74.00
9393;DHT22;4736;52.508;13.422;2023-12-22T06:33:07;2.80;73.40
9393;DHT22;4736;52.508;13.422;2023-12-22T06:36:18;2.80;73.30
9393;DHT22;4736;52.508;13.422;2023-12-22T06:39:21;2.70;73.20
9393;DHT22;4736;52.508;13.422;2023-12-22T06:42:24;2.80;73.20
9393;DHT22;4736;52.508;13.422;2023-12-22T06:45:28;2.90;73.20
9393;DHT22;4736;52.508;13.422;2023-12-22T06:48:32;2.90;73.60
9393;DHT22;4736;52.508;13.422;2023-12-22T06:51:35;2.80;74.70
9393;DHT22;4736;52.508;13.422;2023-12-22T06:54:38;2.70;75.80
9393;DHT22;4736;52.508;13.422;2023-12-22T06:57:42;2.50;76.60
9393;DHT22;4736;52.508;13.422;2023-12-22T07:00:48;2.30;78.00
9393;DHT22;4736;52.508;13.422;2023-12-22T07:03:52;2.30;78.60
9393;DHT22;4736;52.508;13.422;2023-12-22T07:06:55;2.30;78.60
9393;DHT22;4736;52.508;13.422;2023-12-22T07:09:58;2.30;78.90
9393;DHT22;4736;52.508;13.422;2023-12-22T07:13:01;2.30;79.30
9393;DHT22;4736;52.508;13.422;2023-12-22T07:16:06;2.30;79.50
9393;DHT22;4736;52.508;13.422;2023-12-22T07:19:09;2.40;79.50
9393;DHT22;4736;52.508;13.422;2023-12-22T07:22:12;2.40;79.20
9393;DHT22;4736;52.508;13.422;2023-12-22T07:25:17;2.50;79.20
9393;DHT22;4736;52.508;13.422;2023-12-22T07:28:21;2.50;78.60
9393;DHT22;4736;52.508;13.422;2023-12-22T07:31:26;2.50;77.70
9393;DHT22;4736;52.508;13.422;2023-12-22T07:34:29;2.60;77.60
9393;DHT22;4736;52.508;13.422;2023-12-22T07:37:36;2.70;76.70
9393;DHT22;4736;52.508;13.422;2023-12-22T07:40:40;2.70;76.60
9393;DHT22;4736;52.508;13.422;2023-12-22T07:43:43;2.80;76.10
9393;DHT22;4736;52.508;13.422;2023-12-22T07:46:57;2.80;75.90
9393;DHT22;4736;52.508;13.422;2023-12-22T07:50:05;2.80;75.50
9393;DHT22;4736;52.508;13.422;2023-12-22T07:53:09;2.90;75.10
9393;DHT22;4736;52.508;13.422;2023-12-22T07:56:13;2.90;74.80
9393;DHT22;4736;52.508;13.422;2023-12-22T07:59:16;3.00;74.50
9393;DHT22;4736;52.508;13.422;2023-12-22T08:02:47;3.00;74.00
9393;DHT22;4736;52.508;13.422;2023-12-22T08:05:50;3.10;73.60
9393;DHT22;4736;52.508;13.422;2023-12-22T08:08:54;3.10;73.20
9393;DHT22;4736;52.508;13.422;2023-12-22T08:11:57;3.10;72.80
9393;DHT22;4736;52.508;13.422;2023-12-22T08:15:00;3.10;72.70
9393;DHT22;4736;52.508;13.422;2023-12-22T08:18:06;3.10;72.00
9393;DHT22;4736;52.508;13.422;2023-12-22T08:21:09;3.10;72.10
9393;DHT22;4736;52.508;13.422;2023-12-22T08:24:26;3.00;72.00
9393;DHT22;4736;52.508;13.422;2023-12-22T08:27:29;3.00;72.10
9393;DHT22;4736;52.508;13.422;2023-12-22T08:30:34;3.00;72.00
9393;DHT22;4736;52.508;13.422;2023-12-22T08:33:40;3.00;72.70
9393;DHT22;4736;52.508;13.422;2023-12-22T08:36:45;3.00;73.10
9393;DHT22;4736;52.508;13.422;2023-12-22T08:39:51;2.90;73.30
9393;DHT22;4736;52.508;13.422;2023-12-22T08:42:54;2.80;73.20
9393;DHT22;4736;52.508;13.422;2023-12-22T08:46:02;2.80;73.20
9393;DHT22;4736;52.508;13.422;2023-12-22T08:49:06;2.90;73.00
9393;DHT22;4736;52.508;13.422;2023-12-22T08:52:09;2.80;72.80
9393;DHT22;4736;52.508;13.422;2023-12-22T08:55:12;2.80;72.70
9393;DHT22;4736;52.508;13.422;2023-12-22T08:58:15;2.80;72.90
9393;DHT22;4736;52.508;13.422;2023-12-22T09:01:19;2.90;72.20
9393;DHT22;4736;52.508;13.422;2023-12-22T09:04:24;3.00;71.60
9393;DHT22;4736;52.508;13.422;2023-12-22T09:07:27;3.10;71.50
9393;DHT22;4736;52.508;13.422;2023-12-22T09:10:36;3.10;71.70
9393;DHT22;4736;52.508;13.422;2023-12-22T09:13:40;3.10;71.50
9393;DHT22;4736;52.508;13.422;2023-12-22T09:16:43;3.10;71.30
9393;DHT22;4736;52.508;13.422;2023-12-22T09:19:49;3.10;70.80
9393;DHT22;4736;52.508;13.422;2023-12-22T09:22:52;3.20;71.10
9393;DHT22;4736;52.508;13.422;2023-12-22T09:25:55;3.30;70.40
9393;DHT22;4736;52.508;13.422;2023-12-22T09:29:00;3.30;70.30
9393;DHT22;4736;52.508;13.422;2023-12-22T09:32:04;3.50;69.70
9393;DHT22;4736;52.508;13.422;2023-12-22T09:35:08;3.50;69.40
9393;DHT22;4736;52.508;13.422;2023-12-22T09:38:12;3.60;68.60
9393;DHT22;4736;52.508;13.422;2023-12-22T09:41:15;3.60;68.50
9393;DHT22;4736;52.508;13.422;2023-12-22T09:44:20;3.60;67.90
9393;DHT22;4736;52.508;13.422;2023-12-22T09:47:24;3.70;67.80
9393;DHT22;4736;52.508;13.422;2023-12-22T09:50:32;3.70;67.20
9393;DHT22;4736;52.508;13.422;2023-12-22T09:53:39;3.70;67.50
9393;DHT22;4736;52.508;13.422;2023-12-22T09:56:45;3.70;67.20
9393;DHT22;4736;52.508;13.422;2023-12-22T09:59:51;3.70;67.30
9393;DHT22;4736;52.508;13.422;2023-12-22T10:02:55;3.70;67.60
9393;DHT22;4736;52.508;13.422;2023-12-22T10:06:00;3.80;67.50
9393;DHT22;4736;52.508;13.422;2023-12-22T10:09:04;3.90;67.30
9393;DHT22;4736;52.508;13.422;2023-12-22T10:12:09;3.90;67.10
9393;DHT22;4736;52.508;13.422;2023-12-22T10:15:14;3.90;67.20
9393;DHT22;4736;52.508;13.422;2023-12-22T10:18:20;3.90;67.30
9393;DHT22;4736;52.508;13.422;2023-12-22T10:21:25;3.80;67.20
9393;DHT22;4736;52.508;13.422;2023-12-22T10:24:38;3.90;67.10
9393;DHT22;4736;52.508;13.422;2023-12-22T10:27:43;3.90;66.40
9393;DHT22;4736;52.508;13.422;2023-12-22T10:30:47;3.90;66.60
9393;DHT22;4736;52.508;13.422;2023-12-22T10:33:51;4.10;66.20
9393;DHT22;4736;52.508;13.422;2023-12-22T10:36:55;4.20;65.50
9393;DHT22;4736;52.508;13.422;2023-12-22T10:39:59;4.20;65.50
9393;DHT22;4736;52.508;13.422;2023-12-22T10:43:02;4.30;65.00
9393;DHT22;4736;52.508;13.422;2023-12-22T10:46:06;4.30;65.20
9393;DHT22;4736;52.508;13.422;2023-12-22T10:49:09;4.30;64.70
9393;DHT22;4736;52.508;13.422;2023-12-22T10:52:16;4.40;64.70
9393;DHT22;4736;52.508;13.422;2023-12-22T10:55:23;4.40;64.90
9393;DHT22;4736;52.508;13.422;2023-12-22T10:58:28;4.40;64.20
9393;DHT22;4736;52.508;13.422;2023-12-22T11:01:32;4.50;64.80
9393;DHT22;4736;52.508;13.422;2023-12-22T11:04:37;4.70;64.20
9393;DHT22;4736;52.508;13.422;2023-12-22T11:07:45;4.70;63.70
9393;DHT22;4736;52.508;13.422;2023-12-22T11:10:55;4.70;63.60
9393;DHT22;4736;52.508;13.422;2023-12-22T11:14:00;4.80;63.70
9393;DHT22;4736;52.508;13.422;2023-12-22T11:17:04;4.70;63.10
9393;DHT22;4736;52.508;13.422;2023-12-22T11:20:09;4.60;62.90
9393;DHT22;4736;52.508;13.422;2023-12-22T11:23:16;4.60;62.90
9393;DHT22;4736;52.508;13.422;2023-12-22T11:26:21;4.50;63.10
9393;DHT22;4736;52.508;13.422;2023-12-22T11:29:26;4.50;63.30
9393;DHT22;4736;52.508;13.422;2023-12-22T11:32:29;4.60;63.20
9393;DHT22;4736;52.508;13.422;2023-12-22T11:35:33;4.70;63.30
9393;DHT22;4736;52.508;13.422;2023-12-22T11:38:39;4.70;63.10
9393;DHT22;4736;52.508;13.422;2023-12-22T11:41:43;4.80;62.90
9393;DHT22;4736;52.508;13.422;2023-12-22T11:44:47;4.80;61.90
9393;DHT22;4736;52.508;13.422;2023-12-22T11:47:50;4.70;62.30
9393;DHT22;4736;52.508;13.422;2023-12-22T11:50:54;4.70;62.00
9393;DHT22;4736;52.508;13.422;2023-12-22T11:53:59;4.70;61.90
9393;DHT22;4736;52.508;13.422;2023-12-22T11:57:03;4.80;61.70
9393;DHT22;4736;52.508;13.422;2023-12-22T12:00:08;4.70;62.40
9393;DHT22;4736;52.508;13.422;2023-12-22T12:03:12;4.70;63.30
9393;DHT22;4736;52.508;13.422;2023-12-22T12:06:30;4.70;63.50
9393;DHT22;4736;52.508;13.422;2023-12-22T12:09:46;4.70;64.10
9393;DHT22;4736;52.508;13.422;2023-12-22T12:13:04;4.80;64.10
9393;DHT22;4736;52.508;13.422;2023-12-22T12:16:07;4.70;63.80
9393;DHT22;4736;52.508;13.422;2023-12-22T12:19:10;4.70;64.20
9393;DHT22;4736;52.508;13.422;2023-12-22T12:22:14;4.70;64.10
9393;DHT22;4736;52.508;13.422;2023-12-22T12:25:22;4.70;63.70
9393;DHT22;4736;52.508;13.422;2023-12-22T12:28:35;4.70;63.50
9393;DHT22;4736;52.508;13.422;2023-12-22T12:31:38;4.60;63.60
9393;DHT22;4736;52.508;13.422;2023-12-22T12:34:44;4.60;63.80
9393;DHT22;4736;52.508;13.422;2023-12-22T12:37:49;4.60;64.20
9393;DHT22;4736;52.508;13.422;2023-12-22T12:40:57;4.50;64.50
9393;DHT22;4736;52.508;13.422;2023-12-22T12:44:00;4.50;64.70
9393;DHT22;4736;52.508;13.422;2023-12-22T12:47:12;4.50;64.70
9393;DHT22;4736;52.508;13.422;2023-12-22T12:50:21;4.50;64.30
9393;DHT22;4736;52.508;13.422;2023-12-22T12:53:24;4.40;64.60
9393;DHT22;4736;52.508;13.422;2023-12-22T12:56:29;4.40;64.60
9393;DHT22;4736;52.508;13.422;2023-12-22T12:59:35;4.40;64.90
9393;DHT22;4736;52.508;13.422;2023-12-22T13:02:38;4.50;65.10
9393;DHT22;4736;52.508;13.422;2023-12-22T13:05:41;4.50;65.10
9393;DHT22;4736;52.508;13.422;2023-12-22T13:08:47;4.50;65.30
9393;DHT22;4736;52.508;13.422;2023-12-22T13:11:52;4.50;65.50
9393;DHT22;4736;52.508;13.422;2023-12-22T13:14:55;4.50;66.00
9393;DHT22;4736;52.508;13.422;2023-12-22T13:18:05;4.50;65.60
9393;DHT22;4736;52.508;13.422;2023-12-22T13:21:08;4.50;65.80
9393;DHT22;4736;52.508;13.422;2023-12-22T13:24:12;4.50;65.00
9393;DHT22;4736;52.508;13.422;2023-12-22T13:27:17;4.50;64.80
9393;DHT22;4736;52.508;13.422;2023-12-22T13:30:32;4.50;65.00
9393;DHT22;4736;52.508;13.422;2023-12-22T13:33:36;4.50;64.60
9393;DHT22;4736;52.508;13.422;2023-12-22T13:36:39;4.50;64.60
9393;DHT22;4736;52.508;13.422;2023-12-22T13:39:44;4.50;64.30
9393;DHT22;4736;52.508;13.422;2023-12-22T13:42:54;4.40;64.50
9393;DHT22;4736;52.508;13.422;2023-12-22T13:45:59;4.40;64.50
9393;DHT22;4736;52.508;13.422;2023-12-22T13:49:02;4.50;64.50
9393;DHT22;4736;52.508;13.422;2023-12-22T13:52:06;4.50;64.50
9393;DHT22;4736;52.508;13.422;2023-12-22T13:55:10;4.50;64.50
9393;DHT22;4736;52.508;13.422;2023-12-22T13:58:15;4.50;64.60
9393;DHT22;4736;52.508;13.422;2023-12-22T14:01:18;4.40;64.70
9393;DHT22;4736;52.508;13.422;2023-12-22T14:04:22;4.40;64.70
9393;DHT22;4736;52.508;13.422;2023-12-22T14:07:25;4.40;64.80
9393;DHT22;4736;52.508;13.422;2023-12-22T14:10:29;4.40;64.70
9393;DHT22;4736;52.508;13.422;2023-12-22T14:13:35;4.30;64.80
9393;DHT22;4736;52.508;13.422;2023-12-22T14:16:43;4.30;65.10
9393;DHT22;4736;52.508;13.422;2023-12-22T14:19:46;4.20;65.60
9393;DHT22;4736;52.508;13.422;2023-12-22T14:22:51;4.20;66.20
9393;DHT22;4736;52.508;13.422;2023-12-22T14:25:54;4.20;66.50
9393;DHT22;4736;52.508;13.422;2023-12-22T14:28:59;4.10;66.90
9393;DHT22;4736;52.508;13.422;2023-12-22T14:32:02;4.00;67.50
9393;DHT22;4736;52.508;13.422;2023-12-22T14:35:07;4.00;68.40
9393;DHT22;4736;52.508;13.422;2023-12-22T14:38:10;3.80;68.80
9393;DHT22;4736;52.508;13.422;2023-12-22T14:41:13;3.70;69.30
9393;DHT22;4736;52.508;13.422;2023-12-22T14:44:21;3.60;69.20
9393;DHT22;4736;52.508;13.422;2023-12-22T14:47:24;3.70;68.90
9393;DHT22;4736;52.508;13.422;2023-12-22T14:50:28;3.60;68.70
9393;DHT22;4736;52.508;13.422;2023-12-22T14:53:33;3.50;68.60
9393;DHT22;4736;52.508;13.422;2023-12-22T14:56:38;3.50;68.50
9393;DHT22;4736;52.508;13.422;2023-12-22T14:59:45;3.40;68.70
9393;DHT22;4736;52.508;13.422;2023-12-22T15:02:48;3.30;68.50
9393;DHT22;4736;52.508;13.422;2023-12-22T15:05:53;3.30;68.50
9393;DHT22;4736;52.508;13.422;2023-12-22T15:08:57;3.30;68.40
9393;DHT22;4736;52.508;13.422;2023-12-22T15:12:01;3.30;68.00
9393;DHT22;4736;52.508;13.422;2023-12-22T15:15:07;3.40;67.80
9393;DHT22;4736;52.508;13.422;2023-12-22T15:18:11;3.40;67.80
9393;DHT22;4736;52.508;13.422;2023-12-22T15:21:19;3.30;68.10
9393;DHT22;4736;52.508;13.422;2023-12-22T15:24:22;3.30;68.30
9393;DHT22;4736;52.508;13.422;2023-12-22T15:27:28;3.30;68.70
9393;DHT22;4736;52.508;13.422;2023-12-22T15:30:33;3.30;68.60
9393;DHT22;4736;52.508;13.422;2023-12-22T15:33:36;3.30;68.80
9393;DHT22;4736;52.508;13.422;2023-12-22T15:36:39;3.40;68.90
9393;DHT22;4736;52.508;13.422;2023-12-22T15:39:42;3.40;69.10
9393;DHT22;4736;52.508;13.422;2023-12-22T15:42:46;3.30;69.40
9393;DHT22;4736;52.508;13.422;2023-12-22T15:45:50;3.30;69.70
9393;DHT22;4736;52.508;13.422;2023-12-22T15:48:54;3.30;69.80
9393;DHT22;4736;52.508;13.422;2023-12-22T15:51:57;3.30;70.10
9393;DHT22;4736;52.508;13.422;2023-12-22T15:55:00;3.30;70.40
9393;DHT22;4736;52.508;13.422;2023-12-22T15:58:03;3.40;70.50
9393;DHT22;4736;52.508;13.422;2023-12-22T16:01:08;3.30;70.80
9393;DHT22;4736;52.508;13.422;2023-12-22T16:04:13;3.30;71.10
9393;DHT22;4736;52.508;13.422;2023-12-22T16:07:16;3.30;71.00
9393;DHT22;4736;52.508;13.422;2023-12-22T16:10:19;3.30;71.40
9393;DHT22;4736;52.508;13.422;2023-12-22T16:13:22;3.30;71.20
9393;DHT22;4736;52.508;13.422;2023-12-22T16:16:30;3.30;71.20
9393;DHT22;4736;52.508;13.422;2023-12-22T16:19:37;3.30;71.10
9393;DHT22;4736;52.508;13.422;2023-12-22T16:22:41;3.30;71.00
9393;DHT22;4736;52.508;13.422;2023-12-22T16:25:44;3.30;70.80
9393;DHT22;4736;52.508;13.422;2023-12-22T16:28:48;3.30;70.70
9393;DHT22;4736;52.508;13.422;2023-12-22T16:31:52;3.30;70.70
9393;DHT22;4736;52.508;13.422;2023-12-22T16:34:56;3.30;70.50
9393;DHT22;4736;52.508;13.422;2023-12-22T16:37:59;3.30;70.40
9393;DHT22;4736;52.508;13.422;2023-12-22T16:41:02;3.20;70.60
9393;DHT22;4736;52.508;13.422;2023-12-22T16:44:08;3.20;70.20
9393;DHT22;4736;52.508;13.422;2023-12-22T16:47:13;3.30;70.10
9393;DHT22;4736;52.508;13.422;2023-12-22T16:50:17;3.30;69.70
9393;DHT22;4736;52.508;13.422;2023-12-22T16:53:21;3.30;69.70
9393;DHT22;4736;52.508;13.422;2023-12-22T16:56:24;3.20;69.90
9393;DHT22;4736;52.508;13.422;2023-12-22T16:59:28;3.20;69.80
9393;DHT22;4736;52.508;13.422;2023-12-22T17:02:35;3.30;69.70
9393;DHT22;4736;52.508;13.422;2023-12-22T17:05:40;3.20;69.80
9393;DHT22;4736;52.508;13.422;2023-12-22T17:08:44;3.30;69.40
9393;DHT22;4736;52.508;13.422;2023-12-22T17:11:48;3.30;69.50
9393;DHT22;4736;52.508;13.422;2023-12-22T17:14:51;3.30;69.50
9393;DHT22;4736;52.508;13.422;2023-12-22T17:17:56;3.40;69.60
9393;DHT22;4736;52.508;13.422;2023-12-22T17:20:59;3.40;69.60
9393;DHT22;4736;52.508;13.422;2023-12-22T17:24:07;3.40;69.60
9393;DHT22;4736;52.508;13.422;2023-12-22T17:27:10;3.50;69.60
9393;DHT22;4736;52.508;13.422;2023-12-22T17:30:14;3.40;69.70
9393;DHT22;4736;52.508;13.422;2023-12-22T17:33:21;3.50;69.70
9393;DHT22;4736;52.508;13.422;2023-12-22T17:36:27;3.40;69.80
9393;DHT22;4736;52.508;13.422;2023-12-22T17:39:34;3.50;69.80
9393;DHT22;4736;52.508;13.422;2023-12-22T17:42:37;3.50;69.60
9393;DHT22;4736;52.508;13.422;2023-12-22T17:45:43;3.40;69.90
9393;DHT22;4736;52.508;13.422;2023-12-22T17:48:47;3.30;70.10
9393;DHT22;4736;52.508;13.422;2023-12-22T17:51:52;3.30;69.70
9393;DHT22;4736;52.508;13.422;2023-12-22T17:54:55;3.30;69.50
9393;DHT22;4736;52.508;13.422;2023-12-22T17:57:58;3.30;69.70
9393;DHT22;4736;52.508;13.422;2023-12-22T18:01:01;3.30;69.80
9393;DHT22;4736;52.508;13.422;2023-12-22T18:04:05;3.30;69.70
9393;DHT22;4736;52.508;13.422;2023-12-22T18:07:09;3.30;69.90
9393;DHT22;4736;52.508;13.422;2023-12-22T18:10:12;3.30;69.90
9393;DHT22;4736;52.508;13.422;2023-12-22T18:13:17;3.30;69.90
9393;DHT22;4736;52.508;13.422;2023-12-22T18:16:21;3.30;69.90
9393;DHT22;4736;52.508;13.422;2023-12-22T18:19:25;3.30;70.10
9393;DHT22;4736;52.508;13.422;2023-12-22T18:22:29;3.30;70.20
9393;DHT22;4736;52.508;13.422;2023-12-22T18:25:32;3.30;70.30
9393;DHT22;4736;52.508;13.422;2023-12-22T18:28:35;3.30;70.60
9393;DHT22;4736;52.508;13.422;2023-12-22T18:31:38;3.30;70.50
9393;DHT22;4736;52.508;13.422;2023-12-22T18:34:43;3.20;70.60
9393;DHT22;4736;52.508;13.422;2023-12-22T18:37:47;3.30;70.30
9393;DHT22;4736;52.508;13.422;2023-12-22T18:40:51;3.30;70.50
9393;DHT22;4736;52.508;13.422;2023-12-22T18:43:54;3.30;70.50
9393;DHT22;4736;52.508;13.422;2023-12-22T18:46:58;3.30;70.10
9393;DHT22;4736;52.508;13.422;2023-12-22T18:50:02;3.30;70.00
9393;DHT22;4736;52.508;13.422;2023-12-22T18:53:06;3.30;69.80
9393;DHT22;4736;52.508;13.422;2023-12-22T18:56:11;3.40;69.60
9393;DHT22;4736;52.508;13.422;2023-12-22T18:59:15;3.50;69.40
9393;DHT22;4736;52.508;13.422;2023-12-22T19:02:18;3.40;69.60
9393;DHT22;4736;52.508;13.422;2023-12-22T19:05:43;3.40;69.80
9393;DHT22;4736;52.508;13.422;2023-12-22T19:08:46;3.50;69.90
9393;DHT22;4736;52.508;13.422;2023-12-22T19:11:50;3.50;70.20
9393;DHT22;4736;52.508;13.422;2023-12-22T19:14:53;3.50;70.10
9393;DHT22;4736;52.508;13.422;2023-12-22T19:17:57;3.50;70.10
9393;DHT22;4736;52.508;13.422;2023-12-22T19:21:02;3.50;69.70
9393;DHT22;4736;52.508;13.422;2023-12-22T19:24:05;3.60;69.40
9393;DHT22;4736;52.508;13.422;2023-12-22T19:27:09;3.60;69.30
9393;DHT22;4736;52.508;13.422;2023-12-22T19:30:12;3.60;69.00
9393;DHT22;4736;52.508;13.422;2023-12-22T19:33:15;3.60;69.20
9393;DHT22;4736;52.508;13.422;2023-12-22T19:36:20;3.60;69.30
9393;DHT22;4736;52.508;13.422;2023-12-22T19:39:23;3.70;69.20
9393;DHT22;4736;52.508;13.422;2023-12-22T19:42:27;3.80;69.10
9393;DHT22;4736;52.508;13.422;2023-12-22T19:45:31;3.80;69.20
9393;DHT22;4736;52.508;13.422;2023-12-22T19:48:34;3.80;69.50
9393;DHT22;4736;52.508;13.422;2023-12-22T19:51:39;3.70;69.90
9393;DHT22;4736;52.508;13.422;2023-12-22T19:54:42;3.70;70.10
9393;DHT22;4736;52.508;13.422;2023-12-22T19:57:45;3.60;70.30
9393;DHT22;4736;52.508;13.422;2023-12-22T20:00:48;3.60;70.20
9393;DHT22;4736;52.508;13.422;2023-12-22T20:03:52;3.70;69.40
9393;DHT22;4736;52.508;13.422;2023-12-22T20:06:57;3.70;69.00